createdAt,value
2023-03-30T00:00:46.164Z,6.55
2023-03-30T00:03:13.066Z,6.55
2023-03-30T00:05:39.969Z,6.46
2023-03-30T00:08:06.707Z,6.34
2023-03-30T00:10:33.331Z,6.33
2023-03-30T00:12:59.855Z,6.60
2023-03-30T00:15:26.392Z,6.43
2023-03-30T00:17:55.048Z,6.56
2023-03-30T00:20:22.916Z,6.68
2023-03-30T00:22:49.528Z,6.66
2023-03-30T00:25:17.455Z,6.17
2023-03-30T00:27:44.516Z,5.95
2023-03-30T00:30:12.596Z,5.68
2023-03-30T00:32:39.959Z,5.50
2023-03-30T00:35:06.954Z,5.47
2023-03-30T00:37:37.364Z,5.58
2023-03-30T00:40:08.637Z,5.37
2023-03-30T00:42:38.284Z,5.00
2023-03-30T00:45:10.511Z,4.97
2023-03-30T00:47:41.517Z,4.97
2023-03-30T00:50:08.801Z,4.38
2023-03-30T00:52:37.447Z,3.97
2023-03-30T00:55:07.757Z,3.84
2023-03-30T00:57:38.444Z,3.73
2023-03-30T01:00:08.553Z,3.35
2023-03-30T01:02:40.349Z,3.29
2023-03-30T01:05:08.670Z,2.73
2023-03-30T01:07:37.750Z,3.13
2023-03-30T01:10:04.396Z,2.95
2023-03-30T01:12:31.594Z,2.99
2023-03-30T01:14:58.231Z,3.08
2023-03-30T01:17:26.390Z,2.89
2023-03-30T01:19:52.821Z,2.78
2023-03-30T01:22:25.396Z,2.89
2023-03-30T01:24:53.401Z,2.81
2023-03-30T01:27:25.778Z,2.92
2023-03-30T01:30:10.729Z,2.76
2023-03-30T01:32:37.183Z,2.73
2023-03-30T01:35:27.916Z,2.90
2023-03-30T01:38:12.873Z,2.95
2023-03-30T01:41:06.400Z,2.87
2023-03-30T01:43:42.729Z,2.83
2023-03-30T01:46:19.826Z,3.08
2023-03-30T01:48:59.867Z,2.96
2023-03-30T01:51:30.907Z,2.83
2023-03-30T01:54:07.622Z,3.18
2023-03-30T01:56:37.090Z,2.83
2023-03-30T01:59:15.559Z,3.06
2023-03-30T02:01:50.105Z,2.77
2023-03-30T02:04:20.548Z,3.02
2023-03-30T02:06:54.253Z,2.89
2023-03-30T02:09:25.565Z,3.17
2023-03-30T02:11:56.124Z,3.21
2023-03-30T02:14:27.376Z,2.92
2023-03-30T02:16:58.470Z,3.14
2023-03-30T02:19:25.167Z,3.15
2023-03-30T02:21:51.811Z,3.27
2023-03-30T02:24:22.927Z,3.43
2023-03-30T02:26:51.700Z,3.26
2023-03-30T02:29:20.162Z,3.33
2023-03-30T02:31:49.210Z,3.03
2023-03-30T02:34:15.657Z,3.33
2023-03-30T02:37:00.417Z,3.34
2023-03-30T02:39:44.650Z,3.54
2023-03-30T02:42:31.249Z,3.66
2023-03-30T02:45:10.579Z,3.57
2023-03-30T02:48:00.293Z,3.36
2023-03-30T02:50:29.775Z,3.41
2023-03-30T02:53:06.330Z,3.49
2023-03-30T02:55:42.019Z,3.43
2023-03-30T02:58:31.470Z,3.20
2023-03-30T03:01:03.486Z,3.45
2023-03-30T03:03:36.463Z,3.73
2023-03-30T03:06:05.092Z,3.34
2023-03-30T03:08:39.974Z,3.31
2023-03-30T03:11:07.915Z,3.49
2023-03-30T03:13:36.907Z,3.37
2023-03-30T03:16:04.363Z,3.44
2023-03-30T03:18:31.392Z,3.32
2023-03-30T03:20:58.962Z,3.21
2023-03-30T03:23:25.580Z,3.49
2023-03-30T03:25:52.113Z,2.95
2023-03-30T03:28:18.635Z,3.09
2023-03-30T03:30:45.204Z,3.01
2023-03-30T03:33:12.213Z,3.01
2023-03-30T03:35:39.528Z,2.99
2023-03-30T03:38:07.778Z,2.74
2023-03-30T03:40:34.698Z,2.86
2023-03-30T03:43:01.676Z,3.06
2023-03-30T03:45:28.393Z,2.85
2023-03-30T03:47:55.149Z,2.97
2023-03-30T03:50:21.969Z,2.89
2023-03-30T03:52:48.448Z,2.87
2023-03-30T03:55:14.946Z,3.11
2023-03-30T03:57:41.657Z,2.78
2023-03-30T04:00:16.451Z,3.02
2023-03-30T04:02:43.799Z,3.12
2023-03-30T04:05:11.121Z,3.07
2023-03-30T04:07:37.950Z,3.07
2023-03-30T04:10:05.516Z,2.92
2023-03-30T04:12:31.996Z,3.08
2023-03-30T04:14:58.573Z,3.14
2023-03-30T04:17:25.851Z,3.12
2023-03-30T04:19:53.817Z,3.35
2023-03-30T04:22:24.320Z,3.18
2023-03-30T04:24:51.934Z,3.35
2023-03-30T04:27:19.025Z,3.34
2023-03-30T04:29:45.656Z,3.09
2023-03-30T04:32:13.029Z,3.24
2023-03-30T04:34:42.693Z,3.35
2023-03-30T04:37:10.178Z,3.63
2023-03-30T04:39:37.082Z,3.60
2023-03-30T04:42:04.285Z,4.02
2023-03-30T04:44:31.219Z,3.78
2023-03-30T04:46:57.908Z,3.57
2023-03-30T04:49:24.400Z,3.80
2023-03-30T04:51:51.639Z,3.81
2023-03-30T04:54:18.197Z,4.58
2023-03-30T04:56:44.852Z,4.37
2023-03-30T04:59:11.384Z,4.58
2023-03-30T05:01:38.144Z,4.60
2023-03-30T05:04:04.855Z,5.41
2023-03-30T05:06:31.515Z,4.99
2023-03-30T05:08:58.077Z,4.71
2023-03-30T05:11:24.655Z,5.13
2023-03-30T05:13:52.112Z,5.23
2023-03-30T05:16:18.669Z,5.66
2023-03-30T05:18:45.370Z,5.91
2023-03-30T05:21:11.928Z,6.27
2023-03-30T05:23:39.704Z,6.66
2023-03-30T05:26:07.244Z,6.23
2023-03-30T05:28:34.591Z,6.13
2023-03-30T05:31:01.334Z,6.42
2023-03-30T05:33:27.962Z,6.72
2023-03-30T05:35:54.663Z,6.24
2023-03-30T05:38:21.227Z,6.71
2023-03-30T05:40:51.473Z,6.79
2023-03-30T05:43:18.318Z,7.19
2023-03-30T05:45:45.386Z,9.70
2023-03-30T05:48:11.948Z,6.80
2023-03-30T05:50:39.392Z,6.50
2023-03-30T05:53:05.997Z,6.96
2023-03-30T05:55:32.591Z,7.13
2023-03-30T05:57:59.091Z,7.24
2023-03-30T06:00:26.187Z,7.23
2023-03-30T06:02:53.442Z,7.55
2023-03-30T06:05:20.304Z,7.44
2023-03-30T06:07:47.230Z,7.90
2023-03-30T06:10:14.297Z,7.65
2023-03-30T06:12:40.999Z,7.71
2023-03-30T06:15:09.243Z,7.50
2023-03-30T06:17:36.468Z,8.02
2023-03-30T06:20:08.517Z,7.67
2023-03-30T06:22:35.287Z,7.38
2023-03-30T06:25:01.852Z,7.95
2023-03-30T06:27:31.599Z,8.18
2023-03-30T06:29:58.434Z,8.75
2023-03-30T06:32:25.374Z,8.27
2023-03-30T06:34:53.173Z,7.97
2023-03-30T06:37:20.655Z,8.05
2023-03-30T06:39:47.354Z,7.58
2023-03-30T06:42:13.890Z,10.99
2023-03-30T06:44:40.595Z,9.36
2023-03-30T06:47:07.667Z,9.26
2023-03-30T06:49:34.352Z,9.90
2023-03-30T06:52:03.327Z,9.89
2023-03-30T06:54:31.554Z,8.94
2023-03-30T06:56:58.344Z,9.32
2023-03-30T06:59:24.937Z,9.56
2023-03-30T07:01:51.826Z,10.75
2023-03-30T07:04:18.567Z,9.98
2023-03-30T07:06:45.183Z,9.95
2023-03-30T07:09:13.023Z,9.37
2023-03-30T07:11:40.394Z,9.18
2023-03-30T07:14:07.494Z,9.15
2023-03-30T07:16:34.074Z,8.85
2023-03-30T07:19:00.711Z,9.42
2023-03-30T07:21:27.238Z,9.20
2023-03-30T07:23:53.762Z,9.42
2023-03-30T07:26:20.293Z,9.91
2023-03-30T07:28:46.864Z,9.86
2023-03-30T07:31:14.426Z,10.03
2023-03-30T07:33:41.358Z,8.87
2023-03-30T07:36:09.076Z,9.95
2023-03-30T07:38:36.052Z,10.14
2023-03-30T07:41:06.392Z,9.04
2023-03-30T07:43:33.212Z,8.26
2023-03-30T07:46:00.260Z,8.32
2023-03-30T07:48:27.211Z,7.57
2023-03-30T07:51:04.296Z,7.40
2023-03-30T07:53:31.108Z,7.61
2023-03-30T07:55:57.756Z,8.26
2023-03-30T07:58:24.302Z,8.40
2023-03-30T08:00:50.881Z,8.15
2023-03-30T08:03:18.148Z,8.75
2023-03-30T08:05:51.991Z,9.17
2023-03-30T08:08:18.561Z,8.83
2023-03-30T08:10:45.252Z,8.86
2023-03-30T08:13:13.202Z,9.74
2023-03-30T08:15:39.832Z,9.78
2023-03-30T08:18:08.448Z,9.63
2023-03-30T08:20:37.556Z,10.03
2023-03-30T08:23:08.295Z,10.39
2023-03-30T08:25:35.494Z,10.95
2023-03-30T08:28:02.803Z,10.49
2023-03-30T08:30:29.464Z,10.63
2023-03-30T08:32:57.044Z,11.34
2023-03-30T08:35:24.116Z,10.74
2023-03-30T08:37:51.104Z,10.75
2023-03-30T08:40:19.601Z,10.60
2023-03-30T08:42:47.416Z,10.74
2023-03-30T08:45:14.100Z,9.64
2023-03-30T08:47:44.539Z,10.27
2023-03-30T08:50:11.134Z,8.80
2023-03-30T08:52:38.270Z,8.97
2023-03-30T08:55:05.047Z,9.75
2023-03-30T08:57:32.205Z,9.47
2023-03-30T09:00:22.349Z,8.90
2023-03-30T09:02:53.350Z,9.53
2023-03-30T09:05:24.159Z,8.48
2023-03-30T09:07:50.645Z,8.40
2023-03-30T09:10:19.849Z,8.43
2023-03-30T09:12:46.368Z,7.91
2023-03-30T09:15:21.246Z,7.41
2023-03-30T09:17:56.239Z,6.82
2023-03-30T09:20:27.738Z,7.71
2023-03-30T09:22:55.767Z,8.38
2023-03-30T09:25:46.871Z,8.98
2023-03-30T09:28:19.878Z,9.41
2023-03-30T09:30:51.544Z,8.72
2023-03-30T09:33:41.530Z,9.34
2023-03-30T09:36:11.352Z,9.90
2023-03-30T09:38:38.403Z,9.83
2023-03-30T09:41:07.403Z,8.62
2023-03-30T09:43:37.524Z,9.33
2023-03-30T09:46:07.929Z,10.40
2023-03-30T09:48:52.866Z,9.90
2023-03-30T09:51:24.411Z,10.75
2023-03-30T09:53:58.361Z,10.07
2023-03-30T09:56:24.850Z,10.54
2023-03-30T09:58:51.393Z,10.57
2023-03-30T10:01:20.238Z,10.55
2023-03-30T10:04:06.876Z,10.53
2023-03-30T10:06:47.051Z,10.05
2023-03-30T10:09:15.218Z,10.48
2023-03-30T10:11:44.468Z,10.51
2023-03-30T10:14:28.963Z,11.12
2023-03-30T10:16:57.255Z,11.07
2023-03-30T10:19:25.044Z,10.45
2023-03-30T10:21:55.963Z,10.20
2023-03-30T10:24:31.506Z,10.22
2023-03-30T10:27:03.282Z,10.40
2023-03-30T10:29:30.203Z,10.42
2023-03-30T10:32:17.144Z,9.87
2023-03-30T10:34:56.344Z,9.61
2023-03-30T10:37:28.340Z,9.38
2023-03-30T10:39:56.171Z,9.31
2023-03-30T10:42:26.298Z,9.51
2023-03-30T10:45:01.235Z,9.33
2023-03-30T10:47:37.826Z,9.53
2023-03-30T10:50:16.530Z,10.03
2023-03-30T10:52:59.445Z,10.58
2023-03-30T10:55:29.115Z,10.05
2023-03-30T10:58:16.045Z,9.71
2023-03-30T11:00:43.428Z,10.35
2023-03-30T11:03:16.343Z,9.07
2023-03-30T11:05:47.225Z,9.54
2023-03-30T11:08:18.338Z,10.01
2023-03-30T11:10:48.178Z,10.01
2023-03-30T11:13:14.964Z,10.73
2023-03-30T11:15:44.340Z,10.62
2023-03-30T11:18:25.547Z,10.59
2023-03-30T11:21:00.472Z,11.67
2023-03-30T11:23:38.239Z,10.82
2023-03-30T11:26:08.649Z,11.12
2023-03-30T11:28:38.266Z,11.26
2023-03-30T11:31:13.805Z,11.96
2023-03-30T11:33:49.923Z,11.58
2023-03-30T11:36:23.458Z,11.49
2023-03-30T11:39:01.150Z,10.99
2023-03-30T11:41:40.297Z,9.94
2023-03-30T11:44:09.572Z,9.93
2023-03-30T11:46:47.506Z,11.30
2023-03-30T11:49:29.080Z,11.25
2023-03-30T11:51:56.043Z,10.98
2023-03-30T11:54:28.692Z,10.85
2023-03-30T11:57:13.681Z,10.98
2023-03-30T11:59:49.220Z,10.68
2023-03-30T12:02:43.481Z,10.13
2023-03-30T12:05:16.886Z,9.68
2023-03-30T12:07:51.651Z,10.08
2023-03-30T12:10:30.239Z,10.00
2023-03-30T12:12:57.023Z,10.31
2023-03-30T12:15:32.528Z,10.00
2023-03-30T12:18:17.529Z,9.95
2023-03-30T12:20:51.511Z,10.38
2023-03-30T12:23:33.298Z,9.16
2023-03-30T12:26:10.061Z,10.03
2023-03-30T12:28:59.273Z,10.00
2023-03-30T12:31:48.896Z,10.14
2023-03-30T12:34:16.374Z,10.64
2023-03-30T12:36:46.694Z,9.89
2023-03-30T12:39:26.152Z,10.27
2023-03-30T12:42:04.443Z,9.99
2023-03-30T12:44:56.364Z,9.48
2023-03-30T12:47:28.027Z,8.99
2023-03-30T12:49:57.454Z,9.25
2023-03-30T12:52:23.964Z,10.46
2023-03-30T12:55:29.117Z,9.77
2023-03-30T12:58:17.696Z,10.29
2023-03-30T13:00:46.101Z,9.43
2023-03-30T13:03:31.971Z,9.99
2023-03-30T13:06:01.835Z,10.18
2023-03-30T13:08:29.290Z,10.12
2023-03-30T13:11:16.545Z,10.35
2023-03-30T13:13:52.207Z,10.28
2023-03-30T13:16:37.448Z,10.09
2023-03-30T13:19:14.605Z,10.11
2023-03-30T13:21:55.890Z,11.53
2023-03-30T13:24:31.549Z,11.46
2023-03-30T13:27:10.389Z,11.70
2023-03-30T13:29:37.832Z,10.93
2023-03-30T13:32:23.224Z,10.87
2023-03-30T13:35:07.376Z,10.60
2023-03-30T13:37:37.573Z,9.60
2023-03-30T13:40:17.825Z,10.02
2023-03-30T13:43:07.646Z,11.21
2023-03-30T13:45:44.243Z,11.06
2023-03-30T13:48:30.985Z,11.49
2023-03-30T13:50:59.869Z,12.72
2023-03-30T13:53:29.596Z,12.13
2023-03-30T13:55:56.706Z,11.05
2023-03-30T13:58:28.730Z,10.54
2023-03-30T14:00:59.355Z,11.50
2023-03-30T14:03:27.587Z,12.00
2023-03-30T14:06:02.737Z,10.73
2023-03-30T14:08:34.184Z,10.88
2023-03-30T14:11:02.717Z,10.67
2023-03-30T14:13:30.338Z,10.47
2023-03-30T14:15:57.228Z,11.18
2023-03-30T14:18:25.463Z,10.45
2023-03-30T14:21:04.501Z,9.85
2023-03-30T14:23:43.490Z,10.34
2023-03-30T14:26:15.609Z,9.83
2023-03-30T14:28:42.672Z,10.85
2023-03-30T14:31:14.416Z,10.72
2023-03-30T14:33:41.461Z,10.43
2023-03-30T14:36:11.705Z,9.38
2023-03-30T14:38:41.144Z,10.09
2023-03-30T14:41:24.687Z,10.78
2023-03-30T14:43:54.524Z,9.91
2023-03-30T14:46:23.718Z,10.60
2023-03-30T14:48:50.968Z,9.83
2023-03-30T14:51:20.946Z,9.71
2023-03-30T14:53:48.107Z,11.34
2023-03-30T14:56:17.520Z,12.11
2023-03-30T14:58:46.347Z,11.77
2023-03-30T15:01:16.461Z,11.35
2023-03-30T15:03:43.579Z,10.77
2023-03-30T15:06:15.745Z,11.41
2023-03-30T15:08:46.435Z,10.57
2023-03-30T15:11:19.570Z,10.63
2023-03-30T15:13:50.285Z,10.84
2023-03-30T15:16:21.462Z,11.55
2023-03-30T15:18:50.117Z,11.07
2023-03-30T15:21:17.970Z,10.77
2023-03-30T15:23:48.384Z,11.59
2023-03-30T15:26:16.703Z,11.71
2023-03-30T15:28:46.188Z,11.03
2023-03-30T15:31:14.634Z,11.95
2023-03-30T15:33:43.790Z,11.10
2023-03-30T15:36:18.085Z,11.19
2023-03-30T15:38:49.918Z,11.66
2023-03-30T15:41:18.944Z,11.11
2023-03-30T15:43:54.889Z,9.97
2023-03-30T15:46:22.341Z,9.29
2023-03-30T15:48:50.814Z,9.12
2023-03-30T15:51:21.935Z,10.00
2023-03-30T15:53:53.644Z,9.46
2023-03-30T15:56:38.782Z,9.78
2023-03-30T15:59:11.725Z,9.74
2023-03-30T16:01:43.737Z,10.61
2023-03-30T16:04:13.734Z,9.60
2023-03-30T16:06:43.170Z,9.25
2023-03-30T16:09:10.807Z,9.55
2023-03-30T16:11:38.961Z,9.54
2023-03-30T16:14:07.443Z,9.35
2023-03-30T16:16:34.683Z,9.89
2023-03-30T16:19:01.437Z,10.73
2023-03-30T16:21:28.191Z,9.53
2023-03-30T16:23:54.841Z,9.11
2023-03-30T16:26:21.456Z,9.35
2023-03-30T16:28:51.077Z,8.35
2023-03-30T16:31:20.391Z,8.68
2023-03-30T16:33:46.995Z,8.93
2023-03-30T16:36:21.530Z,8.66
2023-03-30T16:38:48.665Z,8.10
2023-03-30T16:41:20.316Z,8.09
2023-03-30T16:43:47.939Z,8.56
2023-03-30T16:46:19.954Z,8.65
2023-03-30T16:48:46.682Z,9.08
2023-03-30T16:51:14.519Z,8.17
2023-03-30T16:53:41.640Z,8.05
2023-03-30T16:56:17.853Z,7.68
2023-03-30T16:58:45.134Z,6.96
2023-03-30T17:01:13.385Z,7.86
2023-03-30T17:03:40.583Z,8.29
2023-03-30T17:06:08.047Z,7.72
2023-03-30T17:08:34.905Z,7.54
2023-03-30T17:11:04.997Z,7.77
2023-03-30T17:13:32.139Z,7.42
2023-03-30T17:16:01.250Z,7.78
2023-03-30T17:18:28.211Z,7.65
2023-03-30T17:20:56.241Z,8.12
2023-03-30T17:23:25.115Z,7.80
2023-03-30T17:25:53.971Z,7.63
2023-03-30T17:28:23.656Z,7.59
2023-03-30T17:30:51.630Z,8.29
2023-03-30T17:33:18.451Z,7.83
2023-03-30T17:35:48.619Z,7.84
2023-03-30T17:38:16.145Z,7.80
2023-03-30T17:40:44.499Z,8.74
2023-03-30T17:43:11.275Z,8.15
2023-03-30T17:45:38.757Z,7.71
2023-03-30T17:48:07.462Z,8.65
2023-03-30T17:50:35.635Z,7.88
2023-03-30T17:53:02.381Z,8.38
2023-03-30T17:55:30.776Z,7.90
2023-03-30T17:57:57.994Z,8.46
2023-03-30T18:00:29.815Z,8.00
2023-03-30T18:02:56.766Z,8.80
2023-03-30T18:05:25.385Z,9.01
2023-03-30T18:07:52.832Z,8.50
2023-03-30T18:10:19.461Z,7.43
2023-03-30T18:12:46.361Z,8.38
2023-03-30T18:15:12.995Z,7.97
2023-03-30T18:17:39.998Z,8.55
2023-03-30T18:20:16.048Z,8.60
2023-03-30T18:22:42.692Z,8.43
2023-03-30T18:25:10.937Z,8.17
2023-03-30T18:27:43.280Z,8.48
2023-03-30T18:30:24.090Z,9.05
2023-03-30T18:32:51.490Z,9.38
2023-03-30T18:35:19.585Z,10.42
2023-03-30T18:37:46.585Z,10.06
2023-03-30T18:40:21.198Z,9.67
2023-03-30T18:42:47.952Z,10.94
2023-03-30T18:45:16.621Z,10.35
2023-03-30T18:47:43.536Z,10.41
2023-03-30T18:50:30.492Z,10.47
2023-03-30T18:52:57.103Z,10.27
2023-03-30T18:55:24.711Z,9.71
2023-03-30T18:57:52.039Z,10.73
2023-03-30T19:00:24.213Z,11.65
2023-03-30T19:02:50.997Z,10.65
2023-03-30T19:05:18.682Z,10.28
2023-03-30T19:07:45.935Z,10.17
2023-03-30T19:10:14.320Z,10.59
2023-03-30T19:12:41.277Z,11.06
2023-03-30T19:15:10.689Z,10.16
2023-03-30T19:17:37.263Z,11.22
2023-03-30T19:20:06.464Z,11.23
2023-03-30T19:22:33.258Z,12.57
2023-03-30T19:24:59.881Z,12.90
2023-03-30T19:27:26.723Z,11.70
2023-03-30T19:29:53.567Z,10.79
2023-03-30T19:32:20.854Z,12.05
2023-03-30T19:34:48.252Z,12.56
2023-03-30T19:37:16.087Z,13.31
2023-03-30T19:39:43.659Z,13.97
2023-03-30T19:42:10.966Z,13.01
2023-03-30T19:44:37.806Z,13.67
2023-03-30T19:47:04.543Z,13.15
2023-03-30T19:49:31.208Z,12.68
2023-03-30T19:51:58.248Z,12.01
2023-03-30T19:54:25.052Z,12.21
2023-03-30T19:56:52.004Z,12.72
2023-03-30T19:59:20.337Z,11.49
2023-03-30T20:01:47.350Z,11.36
2023-03-30T20:04:14.197Z,11.48
2023-03-30T20:06:40.733Z,11.20
2023-03-30T20:09:07.595Z,11.10
2023-03-30T20:11:34.213Z,11.47
2023-03-30T20:14:00.863Z,11.04
2023-03-30T20:16:29.938Z,10.83
2023-03-30T20:18:57.797Z,11.31
2023-03-30T20:21:26.711Z,11.06
2023-03-30T20:23:53.466Z,11.64
2023-03-30T20:26:20.188Z,11.18
2023-03-30T20:28:47.302Z,12.21
2023-03-30T20:31:14.841Z,11.65
2023-03-30T20:33:41.628Z,10.95
2023-03-30T20:36:08.767Z,11.73
2023-03-30T20:38:40.325Z,11.24
2023-03-30T20:41:07.144Z,11.35
2023-03-30T20:43:38.465Z,12.20
2023-03-30T20:46:14.136Z,11.50
2023-03-30T20:48:40.991Z,11.61
2023-03-30T20:51:13.138Z,11.24
2023-03-30T20:53:41.978Z,12.05
2023-03-30T20:56:11.873Z,12.55
2023-03-30T20:58:39.745Z,12.69
2023-03-30T21:01:15.434Z,11.85
2023-03-30T21:03:44.396Z,11.89
2023-03-30T21:06:18.387Z,12.07
2023-03-30T21:08:45.206Z,11.93
2023-03-30T21:11:12.403Z,12.80
2023-03-30T21:13:39.293Z,12.28
2023-03-30T21:16:07.852Z,13.51
2023-03-30T21:18:35.759Z,12.05
2023-03-30T21:21:03.769Z,11.72
2023-03-30T21:23:31.171Z,12.20
2023-03-30T21:26:00.210Z,12.33
2023-03-30T21:28:29.880Z,12.30
2023-03-30T21:30:57.384Z,13.77
2023-03-30T21:33:25.512Z,12.79
2023-03-30T21:35:53.270Z,13.52
2023-03-30T21:38:21.130Z,12.69
2023-03-30T21:41:07.432Z,12.14
2023-03-30T21:43:36.163Z,12.16
2023-03-30T21:46:10.806Z,11.32
2023-03-30T21:48:38.739Z,12.55
2023-03-30T21:51:07.408Z,11.54
2023-03-30T21:53:34.854Z,11.36
2023-03-30T21:56:02.627Z,11.96
2023-03-30T21:58:29.568Z,12.78
2023-03-30T22:01:10.662Z,11.60
2023-03-30T22:03:39.043Z,12.46
2023-03-30T22:06:07.733Z,11.78
2023-03-30T22:08:34.757Z,11.82
2023-03-30T22:11:03.759Z,11.01
2023-03-30T22:13:30.504Z,10.98
2023-03-30T22:16:06.222Z,11.43
2023-03-30T22:18:33.378Z,11.65
2023-03-30T22:21:01.657Z,11.60
2023-03-30T22:23:28.837Z,10.59
2023-03-30T22:25:55.834Z,10.84
2023-03-30T22:28:22.584Z,11.02
2023-03-30T22:30:49.671Z,10.42
2023-03-30T22:33:17.641Z,10.65
2023-03-30T22:35:46.873Z,10.59
2023-03-30T22:38:14.706Z,10.16
2023-03-30T22:40:44.264Z,9.36
2023-03-30T22:43:13.733Z,10.23
2023-03-30T22:45:41.833Z,9.68
2023-03-30T22:48:08.566Z,10.60
2023-03-30T22:50:36.073Z,10.66
2023-03-30T22:53:02.700Z,10.88
2023-03-30T22:55:29.302Z,9.77
2023-03-30T22:57:57.071Z,10.60
2023-03-30T23:00:24.699Z,10.36
2023-03-30T23:02:51.439Z,10.97
2023-03-30T23:05:21.442Z,10.39
2023-03-30T23:07:49.174Z,10.58
2023-03-30T23:10:18.073Z,9.25
2023-03-30T23:12:45.287Z,11.43
2023-03-30T23:15:12.492Z,10.06
2023-03-30T23:17:39.801Z,10.22
2023-03-30T23:20:09.489Z,9.24
2023-03-30T23:22:39.422Z,10.38
2023-03-30T23:25:06.716Z,10.90
2023-03-30T23:27:34.155Z,10.65
2023-03-30T23:30:00.865Z,11.23
2023-03-30T23:32:27.442Z,10.55
2023-03-30T23:34:54.130Z,10.14
2023-03-30T23:37:21.967Z,9.94
2023-03-30T23:39:48.631Z,9.89
2023-03-30T23:42:15.380Z,9.59
2023-03-30T23:44:42.175Z,9.52
2023-03-30T23:47:08.740Z,9.54
2023-03-30T23:49:35.257Z,9.75
2023-03-30T23:52:01.964Z,9.86
2023-03-30T23:54:31.603Z,9.71
2023-03-30T23:56:58.438Z,9.50
2023-03-30T23:59:26.036Z,9.48
